NORTHEAST SUFFOLK  -  Winter Weather Advisory Winter Weather Advisory     Winter Weather Advisory Winter Weather Advisory        NORTHERN NASSAU  -  Winter Weather Advisory Winter Weather Advisory        NORTHWEST SUFFOLK  -  Winter Weather Advisory Winter Weather Advisory     Winter Weather Advisory Winter Weather Advisory        SOUTHEAST SUFFOLK  -  Winter Weather Advisory Winter Weather Advisory     Winter Weather Advisory Winter Weather Advisory        SOUTHERN NASSAU  -  Winter Weather Advisory Winter Weather Advisory        SOUTHWEST SUFFOLK  -  Winter Weather Advisory Winter Weather Advisory     Winter Weather Advisory Winter Weather Advisory      

Active alerts

Northern Nassau
  Details for Northern Nassau Winter Weather Advisory
Southern Nassau
  Details for Southern Nassau Winter Weather Advisory
Northwest Suffolk
  Details for Northwest Suffolk Winter Weather Advisory  +1 additional alert
Southwest Suffolk
  Details for Southwest Suffolk Winter Weather Advisory  +1 additional alert
Northeast Suffolk
  Details for Northeast Suffolk Winter Weather Advisory  +1 additional alert
Southeast Suffolk
  Details for Southeast Suffolk Winter Weather Advisory  +1 additional alert


WXM80 ListenWXM80 Stop

You find our weather info also at:

UK Metoffice

WeatherCloud

Weather Underground

Northeastern Weather Network

AWEKAS

Citizen Weather Observer Program (CWOP)

HAMweather, WeatherForYou, PWS Weather


Weather Underground History page Text

Daily Summary for September 1, 2017 Units:  Both    English   Metric
« Previous Day
Next Day »
Daily Weekly Monthly Yearly Custom
  High: Low: Average:
Temperature: 74.7 °F /  23.7 °C 55.5 °F /  13.1 °C 64.8 °F /  18.2 °C
Dew Point: 54.0 °F /  12.2 °C 44.1 °F /  6.7 °C 46.8 °F /  8.2 °C
Humidity: 69 % 34 % 54 %
Wind Speed: 12.4 mph /  20 km/h - 3.3 mph /  5.3 km/h
Wind Gust: 18.4 mph /  29.6 km/h - -
Wind:- - South
Pressure: 30.14 in /  1020.5 hPa 29.93 in /  1013.4 hPa -
Precipitation: 0.00 in /  0 mm    
Historical Graphs
 
 
Tabular Data for September 1, 2017
Time Temperature Dew Point Pressure Wind Wind Speed Wind Gust Humidity Rainfall Rate (Hourly)
00:02 65.9 °F /  18.8 °C 53.4 °F /  11.9 °C 29.93 in /  1013.4 hPa NNW 5.5 mph /  8.9 km/h 10.4 mph /  16.7 km/h 64 % 0.00 in /  0 mm
00:07 65.7 °F /  18.7 °C 54.0 °F /  12.2 °C 29.93 in /  1013.4 hPa NNE 7.1 mph /  11.4 km/h 14.0 mph /  22.5 km/h 66 % 0.00 in /  0 mm
00:12 65.4 °F /  18.6 °C 53.3 °F /  11.8 °C 29.94 in /  1013.8 hPa NNE 5.9 mph /  9.5 km/h 15.0 mph /  24.1 km/h 65 % 0.00 in /  0 mm
00:17 65.2 °F /  18.4 °C 54.0 °F /  12.2 °C 29.94 in /  1013.8 hPa NNE 7.2 mph /  11.6 km/h 11.5 mph /  18.5 km/h 67 % 0.00 in /  0 mm
00:22 65.0 °F /  18.3 °C 53.8 °F /  12.1 °C 29.95 in /  1014.1 hPa North 6.2 mph /  10 km/h 11.5 mph /  18.5 km/h 67 % 0.00 in /  0 mm
00:27 64.9 °F /  18.3 °C 53.7 °F /  12.1 °C 29.95 in /  1014.1 hPa NW 6.3 mph /  10.1 km/h 9.0 mph /  14.5 km/h 67 % 0.00 in /  0 mm
00:32 64.6 °F /  18.1 °C 53.4 °F /  11.9 °C 29.95 in /  1014.1 hPa NNE 3.9 mph /  6.3 km/h 10.4 mph /  16.7 km/h 67 % 0.00 in /  0 mm
00:37 64.4 °F /  18 °C 53.6 °F /  12 °C 29.95 in /  1014.1 hPa NNE 4.9 mph /  7.9 km/h 9.2 mph /  14.8 km/h 68 % 0.00 in /  0 mm
00:39 64.4 °F /  18 °C 53.6 °F /  12 °C 29.95 in /  1014.1 hPa North 6.3 mph /  10.1 km/h 10.4 mph /  16.7 km/h 68 % 0.00 in /  0 mm
00:44 64.2 °F /  17.9 °C 53.0 °F /  11.7 °C 29.95 in /  1014.1 hPa NNE 5.9 mph /  9.5 km/h 12.7 mph /  20.4 km/h 67 % 0.00 in /  0 mm
00:49 64.0 °F /  17.8 °C 52.8 °F /  11.6 °C 29.96 in /  1014.4 hPa NNW 3.7 mph /  6 km/h 6.9 mph /  11.1 km/h 67 % 0.00 in /  0 mm
00:54 63.8 °F /  17.7 °C 52.6 °F /  11.4 °C 29.96 in /  1014.4 hPa NNE 5.7 mph /  9.2 km/h 18.4 mph /  29.6 km/h 67 % 0.00 in /  0 mm
00:59 63.5 °F /  17.5 °C 51.9 °F /  11.1 °C 29.97 in /  1014.8 hPa NNE 5.6 mph /  9 km/h 9.2 mph /  14.8 km/h 66 % 0.00 in /  0 mm
01:04 63.4 °F /  17.4 °C 52.7 °F /  11.5 °C 29.96 in /  1014.4 hPa North 7.1 mph /  11.4 km/h 10.4 mph /  16.7 km/h 68 % 0.00 in /  0 mm
01:09 63.2 °F /  17.3 °C 52.1 °F /  11.2 °C 29.96 in /  1014.4 hPa NNW 7.4 mph /  11.9 km/h 16.1 mph /  25.9 km/h 67 % 0.00 in /  0 mm
01:15 63.1 °F /  17.3 °C 52.0 °F /  11.1 °C 29.96 in /  1014.4 hPa NNE 6.8 mph /  10.9 km/h 11.5 mph /  18.5 km/h 67 % 0.00 in /  0 mm
01:20 62.9 °F /  17.2 °C 51.8 °F /  11 °C 29.96 in /  1014.4 hPa NNW 6.3 mph /  10.1 km/h 9.2 mph /  14.8 km/h 67 % 0.00 in /  0 mm
01:25 62.8 °F /  17.1 °C 52.1 °F /  11.2 °C 29.96 in /  1014.4 hPa NNE 1.8 mph /  2.9 km/h 5.8 mph /  9.3 km/h 68 % 0.00 in /  0 mm
01:30 62.7 °F /  17.1 °C 52.0 °F /  11.1 °C 29.96 in /  1014.4 hPa NNE 2.9 mph /  4.7 km/h 7.0 mph /  11.3 km/h 68 % 0.00 in /  0 mm
01:35 62.5 °F /  16.9 °C 51.4 °F /  10.8 °C 29.96 in /  1014.4 hPa NNW 5.3 mph /  8.5 km/h 11.5 mph /  18.5 km/h 67 % 0.00 in /  0 mm
01:40 62.4 °F /  16.9 °C 51.3 °F /  10.7 °C 29.96 in /  1014.4 hPa NNE 5.8 mph /  9.3 km/h 11.5 mph /  18.5 km/h 67 % 0.00 in /  0 mm
01:45 62.3 °F /  16.8 °C 51.2 °F /  10.7 °C 29.96 in /  1014.4 hPa NNE 4.0 mph /  6.4 km/h 9.2 mph /  14.8 km/h 67 % 0.00 in /  0 mm
01:50 62.1 °F /  16.7 °C 50.6 °F /  10.3 °C 29.96 in /  1014.4 hPa NNE 3.0 mph /  4.8 km/h 11.0 mph /  17.7 km/h 66 % 0.00 in /  0 mm
01:55 62.0 °F /  16.7 °C 50.1 °F /  10.1 °C 29.96 in /  1014.4 hPa North 5.2 mph /  8.4 km/h 9.2 mph /  14.8 km/h 65 % 0.00 in /  0 mm
02:00 61.8 °F /  16.6 °C 50.3 °F /  10.2 °C 29.96 in /  1014.4 hPa North 5.6 mph /  9 km/h 10.4 mph /  16.7 km/h 66 % 0.00 in /  0 mm
02:05 61.7 °F /  16.5 °C 49.8 °F /  9.9 °C 29.97 in /  1014.8 hPa North 4.2 mph /  6.8 km/h 11.5 mph /  18.5 km/h 65 % 0.00 in /  0 mm
02:10 61.6 °F /  16.4 °C 49.3 °F /  9.6 °C 29.97 in /  1014.8 hPa NNW 8.6 mph /  13.8 km/h 13.8 mph /  22.2 km/h 64 % 0.00 in /  0 mm
02:15 61.5 °F /  16.4 °C 49.2 °F /  9.6 °C 29.97 in /  1014.8 hPa NE 7.4 mph /  11.9 km/h 11.5 mph /  18.5 km/h 64 % 0.00 in /  0 mm
02:20 61.4 °F /  16.3 °C 49.1 °F /  9.5 °C 29.97 in /  1014.8 hPa North 5.4 mph /  8.7 km/h 12.7 mph /  20.4 km/h 64 % 0.00 in /  0 mm
02:22 61.4 °F /  16.3 °C 49.1 °F /  9.5 °C 29.96 in /  1014.4 hPa NNE 6.8 mph /  10.9 km/h 10.4 mph /  16.7 km/h 64 % 0.00 in /  0 mm
02:27 61.3 °F /  16.3 °C 49.4 °F /  9.7 °C 29.97 in /  1014.8 hPa WNW 3.9 mph /  6.3 km/h 11.5 mph /  18.5 km/h 65 % 0.00 in /  0 mm
02:32 61.2 °F /  16.2 °C 48.9 °F /  9.4 °C 29.97 in /  1014.8 hPa NNE 4.3 mph /  6.9 km/h 10.4 mph /  16.7 km/h 64 % 0.00 in /  0 mm
02:37 61.1 °F /  16.2 °C 48.8 °F /  9.3 °C 29.98 in /  1015.1 hPa NNE 2.8 mph /  4.5 km/h 10.4 mph /  16.7 km/h 64 % 0.00 in /  0 mm
02:42 61.0 °F /  16.1 °C 49.1 °F /  9.5 °C 29.97 in /  1014.8 hPa NNE 3.6 mph /  5.8 km/h 6.9 mph /  11.1 km/h 65 % 0.00 in /  0 mm
02:47 60.8 °F /  16 °C 48.5 °F /  9.2 °C 29.97 in /  1014.8 hPa NNE 3.1 mph /  5 km/h 9.2 mph /  14.8 km/h 64 % 0.00 in /  0 mm
02:52 60.7 °F /  15.9 °C 48.4 °F /  9.1 °C 29.97 in /  1014.8 hPa NNW 4.9 mph /  7.9 km/h 9.2 mph /  14.8 km/h 64 % 0.00 in /  0 mm
02:57 60.6 °F /  15.9 °C 48.4 °F /  9.1 °C 29.97 in /  1014.8 hPa NE 4.4 mph /  7.1 km/h 10.4 mph /  16.7 km/h 64 % 0.00 in /  0 mm
03:02 60.5 °F /  15.8 °C 48.3 °F /  9.1 °C 29.97 in /  1014.8 hPa NNE 3.6 mph /  5.8 km/h 9.0 mph /  14.5 km/h 64 % 0.00 in /  0 mm
03:07 60.3 °F /  15.7 °C 47.6 °F /  8.7 °C 29.98 in /  1015.1 hPa NE 6.5 mph /  10.5 km/h 9.2 mph /  14.8 km/h 63 % 0.00 in /  0 mm
03:12 60.2 °F /  15.7 °C 48.0 °F /  8.9 °C 29.98 in /  1015.1 hPa NNE 2.9 mph /  4.7 km/h 9.2 mph /  14.8 km/h 64 % 0.00 in /  0 mm
03:17 60.0 °F /  15.6 °C 47.8 °F /  8.8 °C 29.97 in /  1014.8 hPa NE 5.2 mph /  8.4 km/h 13.8 mph /  22.2 km/h 64 % 0.00 in /  0 mm
03:22 59.9 °F /  15.5 °C 47.3 °F /  8.5 °C 29.97 in /  1014.8 hPa North 8.1 mph /  13 km/h 12.7 mph /  20.4 km/h 63 % 0.00 in /  0 mm
03:27 59.8 °F /  15.4 °C 47.6 °F /  8.7 °C 29.98 in /  1015.1 hPa North 6.5 mph /  10.5 km/h 12.7 mph /  20.4 km/h 64 % 0.00 in /  0 mm
03:32 59.7 °F /  15.4 °C 47.9 °F /  8.8 °C 29.98 in /  1015.1 hPa NE 3.9 mph /  6.3 km/h 8.1 mph /  13 km/h 65 % 0.00 in /  0 mm
03:37 59.6 °F /  15.3 °C 47.8 °F /  8.8 °C 29.98 in /  1015.1 hPa NNE 7.8 mph /  12.6 km/h 11.0 mph /  17.7 km/h 65 % 0.00 in /  0 mm
03:42 59.4 °F /  15.2 °C 47.6 °F /  8.7 °C 29.98 in /  1015.1 hPa North 12.4 mph /  20 km/h 16.1 mph /  25.9 km/h 65 % 0.00 in /  0 mm
03:48 59.3 °F /  15.2 °C 47.5 °F /  8.6 °C 29.98 in /  1015.1 hPa North 5.5 mph /  8.9 km/h 10.0 mph /  16.1 km/h 65 % 0.00 in /  0 mm
03:53 59.2 °F /  15.1 °C 47.4 °F /  8.6 °C 29.98 in /  1015.1 hPa North 5.1 mph /  8.2 km/h 11.5 mph /  18.5 km/h 65 % 0.00 in /  0 mm
03:58 59.1 °F /  15.1 °C 46.9 °F /  8.3 °C 29.98 in /  1015.1 hPa North 5.6 mph /  9 km/h 13.8 mph /  22.2 km/h 64 % 0.00 in /  0 mm
04:03 59.0 °F /  15 °C 47.2 °F /  8.4 °C 29.98 in /  1015.1 hPa NNW 8.9 mph /  14.3 km/h 12.0 mph /  19.3 km/h 65 % 0.00 in /  0 mm
04:08 58.8 °F /  14.9 °C 47.1 °F /  8.4 °C 29.99 in /  1015.5 hPa ENE 4.8 mph /  7.7 km/h 10.4 mph /  16.7 km/h 65 % 0.00 in /  0 mm
04:13 58.6 °F /  14.8 °C 46.9 °F /  8.3 °C 29.99 in /  1015.5 hPa North 5.1 mph /  8.2 km/h 9.2 mph /  14.8 km/h 65 % 0.00 in /  0 mm
04:18 58.5 °F /  14.7 °C 47.6 °F /  8.7 °C 30.00 in /  1015.8 hPa NNW 5.1 mph /  8.2 km/h 10.0 mph /  16.1 km/h 67 % 0.00 in /  0 mm
04:23 58.2 °F /  14.6 °C 47.7 °F /  8.7 °C 29.99 in /  1015.5 hPa NNE 4.6 mph /  7.4 km/h 11.5 mph /  18.5 km/h 68 % 0.00 in /  0 mm
04:28 58.0 °F /  14.4 °C 47.5 °F /  8.6 °C 30.00 in /  1015.8 hPa North 4.3 mph /  6.9 km/h 10.0 mph /  16.1 km/h 68 % 0.00 in /  0 mm
04:33 57.8 °F /  14.3 °C 47.7 °F /  8.7 °C 30.00 in /  1015.8 hPa NNE 6.2 mph /  10 km/h 11.5 mph /  18.5 km/h 69 % 0.00 in /  0 mm
04:38 57.5 °F /  14.2 °C 47.4 °F /  8.6 °C 30.00 in /  1015.8 hPa NE 4.1 mph /  6.6 km/h 10.4 mph /  16.7 km/h 69 % 0.00 in /  0 mm
04:43 57.3 °F /  14.1 °C 47.2 °F /  8.4 °C 30.00 in /  1015.8 hPa North 4.1 mph /  6.6 km/h 8.1 mph /  13 km/h 69 % 0.00 in /  0 mm
04:48 57.1 °F /  13.9 °C 46.6 °F /  8.1 °C 30.01 in /  1016.1 hPa NNE 2.9 mph /  4.7 km/h 4.6 mph /  7.4 km/h 68 % 0.00 in /  0 mm
04:53 57.0 °F /  13.9 °C 46.9 °F /  8.3 °C 30.01 in /  1016.1 hPa NNW 0.5 mph /  0.8 km/h 4.0 mph /  6.4 km/h 69 % 0.00 in /  0 mm
04:58 56.9 °F /  13.8 °C 46.8 °F /  8.2 °C 30.00 in /  1015.8 hPa North 4.8 mph /  7.7 km/h 11.5 mph /  18.5 km/h 69 % 0.00 in /  0 mm
05:03 56.7 °F /  13.7 °C 46.6 °F /  8.1 °C 30.01 in /  1016.1 hPa NNW 4.2 mph /  6.8 km/h 9.0 mph /  14.5 km/h 69 % 0.00 in /  0 mm
05:08 56.6 °F /  13.7 °C 46.5 °F /  8.1 °C 30.01 in /  1016.1 hPa North 4.7 mph /  7.6 km/h 9.2 mph /  14.8 km/h 69 % 0.00 in /  0 mm
05:14 56.4 °F /  13.6 °C 46.4 °F /  8 °C 30.01 in /  1016.1 hPa North 3.7 mph /  6 km/h 11.5 mph /  18.5 km/h 69 % 0.00 in /  0 mm
05:19 56.2 °F /  13.4 °C 45.8 °F /  7.7 °C 30.02 in /  1016.5 hPa NNE 5.7 mph /  9.2 km/h 11.5 mph /  18.5 km/h 68 % 0.00 in /  0 mm
05:24 56.1 °F /  13.4 °C 45.7 °F /  7.6 °C 30.02 in /  1016.5 hPa North 6.0 mph /  9.7 km/h 8.0 mph /  12.9 km/h 68 % 0.00 in /  0 mm
05:29 56.0 °F /  13.3 °C 45.6 °F /  7.6 °C 30.02 in /  1016.5 hPa NE 5.6 mph /  9 km/h 11.5 mph /  18.5 km/h 68 % 0.00 in /  0 mm
05:34 55.9 °F /  13.3 °C 45.5 °F /  7.5 °C 30.02 in /  1016.5 hPa North 6.1 mph /  9.8 km/h 12.7 mph /  20.4 km/h 68 % 0.00 in /  0 mm
05:39 55.9 °F /  13.3 °C 45.1 °F /  7.3 °C 30.02 in /  1016.5 hPa North 4.0 mph /  6.4 km/h 9.2 mph /  14.8 km/h 67 % 0.00 in /  0 mm
05:44 55.7 °F /  13.2 °C 45.3 °F /  7.4 °C 30.02 in /  1016.5 hPa NNE 4.5 mph /  7.2 km/h 9.2 mph /  14.8 km/h 68 % 0.00 in /  0 mm
05:49 55.7 °F /  13.2 °C 45.7 °F /  7.6 °C 30.03 in /  1016.8 hPa NNE 2.0 mph /  3.2 km/h 5.0 mph /  8 km/h 69 % 0.00 in /  0 mm
05:54 55.6 °F /  13.1 °C 45.2 °F /  7.3 °C 30.03 in /  1016.8 hPa NE 6.0 mph /  9.7 km/h 10.4 mph /  16.7 km/h 68 % 0.00 in /  0 mm
05:59 55.5 °F /  13.1 °C 45.5 °F /  7.5 °C 30.03 in /  1016.8 hPa NNW 1.8 mph /  2.9 km/h 5.8 mph /  9.3 km/h 69 % 0.00 in /  0 mm
06:04 55.5 °F /  13.1 °C 45.1 °F /  7.3 °C 30.03 in /  1016.8 hPa NE 2.4 mph /  3.9 km/h 8.1 mph /  13 km/h 68 % 0.00 in /  0 mm
06:09 55.6 °F /  13.1 °C 45.6 °F /  7.6 °C 30.04 in /  1017.2 hPa NNW 6.7 mph /  10.8 km/h 8.1 mph /  13 km/h 69 % 0.00 in /  0 mm
06:14 55.6 °F /  13.1 °C 45.2 °F /  7.3 °C 30.04 in /  1017.2 hPa NNW 2.6 mph /  4.2 km/h 5.8 mph /  9.3 km/h 68 % 0.00 in /  0 mm
06:19 55.6 °F /  13.1 °C 45.2 °F /  7.3 °C 30.05 in /  1017.5 hPa NNE 3.3 mph /  5.3 km/h 9.0 mph /  14.5 km/h 68 % 0.00 in /  0 mm
06:24 55.6 °F /  13.1 °C 44.8 °F /  7.1 °C 30.05 in /  1017.5 hPa NNW 1.7 mph /  2.7 km/h 7.0 mph /  11.3 km/h 67 % 0.00 in /  0 mm
06:29 55.5 °F /  13.1 °C 44.7 °F /  7.1 °C 30.04 in /  1017.2 hPa NNE 5.7 mph /  9.2 km/h 6.9 mph /  11.1 km/h 67 % 0.00 in /  0 mm
06:34 55.5 °F /  13.1 °C 44.3 °F /  6.8 °C 30.04 in /  1017.2 hPa North 4.3 mph /  6.9 km/h 10.4 mph /  16.7 km/h 66 % 0.00 in /  0 mm
06:39 55.5 °F /  13.1 °C 45.1 °F /  7.3 °C 30.04 in /  1017.2 hPa NE 4.2 mph /  6.8 km/h 8.1 mph /  13 km/h 68 % 0.00 in /  0 mm
06:44 55.5 °F /  13.1 °C 45.1 °F /  7.3 °C 30.04 in /  1017.2 hPa NNE 4.3 mph /  6.9 km/h 8.1 mph /  13 km/h 68 % 0.00 in /  0 mm
06:49 55.5 °F /  13.1 °C 45.5 °F /  7.5 °C 30.05 in /  1017.5 hPa North 4.3 mph /  6.9 km/h 10.0 mph /  16.1 km/h 69 % 0.00 in /  0 mm
06:55 55.6 °F /  13.1 °C 45.2 °F /  7.3 °C 30.05 in /  1017.5 hPa NNE 5.4 mph /  8.7 km/h 10.4 mph /  16.7 km/h 68 % 0.00 in /  0 mm
07:00 55.6 °F /  13.1 °C 45.2 °F /  7.3 °C 30.05 in /  1017.5 hPa North 3.7 mph /  6 km/h 10.4 mph /  16.7 km/h 68 % 0.00 in /  0 mm
07:05 55.7 °F /  13.2 °C 45.3 °F /  7.4 °C 30.05 in /  1017.5 hPa North 6.9 mph /  11.1 km/h 8.1 mph /  13 km/h 68 % 0.00 in /  0 mm
07:10 55.7 °F /  13.2 °C 45.3 °F /  7.4 °C 30.05 in /  1017.5 hPa NNE 3.7 mph /  6 km/h 9.2 mph /  14.8 km/h 68 % 0.00 in /  0 mm
07:15 55.7 °F /  13.2 °C 45.3 °F /  7.4 °C 30.06 in /  1017.8 hPa NE 4.4 mph /  7.1 km/h 5.0 mph /  8 km/h 68 % 0.00 in /  0 mm
07:20 55.7 °F /  13.2 °C 44.9 °F /  7.2 °C 30.06 in /  1017.8 hPa NW 1.7 mph /  2.7 km/h 11.5 mph /  18.5 km/h 67 % 0.00 in /  0 mm
07:25 55.7 °F /  13.2 °C 44.9 °F /  7.2 °C 30.06 in /  1017.8 hPa North 6.7 mph /  10.8 km/h 7.0 mph /  11.3 km/h 67 % 0.00 in /  0 mm
07:30 55.8 °F /  13.2 °C 45.0 °F /  7.2 °C 30.06 in /  1017.8 hPa NNE 3.2 mph /  5.1 km/h 9.2 mph /  14.8 km/h 67 % 0.00 in /  0 mm
07:35 55.8 °F /  13.2 °C 45.4 °F /  7.4 °C 30.06 in /  1017.8 hPa North 6.5 mph /  10.5 km/h 9.2 mph /  14.8 km/h 68 % 0.00 in /  0 mm
07:40 55.9 °F /  13.3 °C 44.7 °F /  7.1 °C 30.06 in /  1017.8 hPa ENE 2.1 mph /  3.4 km/h 8.1 mph /  13 km/h 66 % 0.00 in /  0 mm
07:45 55.9 °F /  13.3 °C 44.7 °F /  7.1 °C 30.06 in /  1017.8 hPa NE 5.2 mph /  8.4 km/h 9.2 mph /  14.8 km/h 66 % 0.00 in /  0 mm
07:50 56.0 °F /  13.3 °C 44.4 °F /  6.9 °C 30.06 in /  1017.8 hPa NNW 4.0 mph /  6.4 km/h 6.9 mph /  11.1 km/h 65 % 0.00 in /  0 mm
07:55 56.0 °F /  13.3 °C 45.2 °F /  7.3 °C 30.06 in /  1017.8 hPa NNE 4.6 mph /  7.4 km/h 6.9 mph /  11.1 km/h 67 % 0.00 in /  0 mm
08:00 56.0 °F /  13.3 °C 45.2 °F /  7.3 °C 30.07 in /  1018.2 hPa WNW 3.3 mph /  5.3 km/h 6.9 mph /  11.1 km/h 67 % 0.00 in /  0 mm
08:05 56.1 °F /  13.4 °C 44.5 °F /  6.9 °C 30.06 in /  1017.8 hPa NW 2.7 mph /  4.3 km/h 4.6 mph /  7.4 km/h 65 % 0.00 in /  0 mm
08:10 56.2 °F /  13.4 °C 45.0 °F /  7.2 °C 30.07 in /  1018.2 hPa NW 1.0 mph /  1.6 km/h 4.0 mph /  6.4 km/h 66 % 0.00 in /  0 mm
08:15 56.2 °F /  13.4 °C 44.6 °F /  7 °C 30.06 in /  1017.8 hPa NNE 3.6 mph /  5.8 km/h 6.9 mph /  11.1 km/h 65 % 0.00 in /  0 mm
08:20 56.3 °F /  13.5 °C 45.1 °F /  7.3 °C 30.07 in /  1018.2 hPa WNW 2.6 mph /  4.2 km/h 7.0 mph /  11.3 km/h 66 % 0.00 in /  0 mm
08:25 56.3 °F /  13.5 °C 45.1 °F /  7.3 °C 30.07 in /  1018.2 hPa North 1.8 mph /  2.9 km/h 5.8 mph /  9.3 km/h 66 % 0.00 in /  0 mm
08:30 56.4 °F /  13.6 °C 44.8 °F /  7.1 °C 30.07 in /  1018.2 hPa NW 0.9 mph /  1.4 km/h 6.9 mph /  11.1 km/h 65 % 0.00 in /  0 mm
08:35 56.4 °F /  13.6 °C 44.8 °F /  7.1 °C 30.07 in /  1018.2 hPa NW 1.6 mph /  2.6 km/h 8.1 mph /  13 km/h 65 % 0.00 in /  0 mm
08:40 56.5 °F /  13.6 °C 44.9 °F /  7.2 °C 30.07 in /  1018.2 hPa NE 3.8 mph /  6.1 km/h 4.0 mph /  6.4 km/h 65 % 0.00 in /  0 mm
08:45 56.6 °F /  13.7 °C 45.4 °F /  7.4 °C 30.08 in /  1018.5 hPa NW 2.2 mph /  3.5 km/h 3.5 mph /  5.6 km/h 66 % 0.00 in /  0 mm
08:50 56.8 °F /  13.8 °C 45.6 °F /  7.6 °C 30.07 in /  1018.2 hPa WNW 1.6 mph /  2.6 km/h 4.6 mph /  7.4 km/h 66 % 0.00 in /  0 mm
08:55 57.0 °F /  13.9 °C 46.1 °F /  7.8 °C 30.07 in /  1018.2 hPa North 0.7 mph /  1.1 km/h 6.9 mph /  11.1 km/h 67 % 0.00 in /  0 mm
09:01 57.1 °F /  13.9 °C 45.4 °F /  7.4 °C 30.07 in /  1018.2 hPa WNW 3.3 mph /  5.3 km/h 4.0 mph /  6.4 km/h 65 % 0.00 in /  0 mm
09:06 57.2 °F /  14 °C 45.1 °F /  7.3 °C 30.07 in /  1018.2 hPa North 5.1 mph /  8.2 km/h 8.1 mph /  13 km/h 64 % 0.00 in /  0 mm
09:11 57.3 °F /  14.1 °C 45.2 °F /  7.3 °C 30.08 in /  1018.5 hPa North 2.7 mph /  4.3 km/h 4.6 mph /  7.4 km/h 64 % 0.00 in /  0 mm
09:16 57.4 °F /  14.1 °C 45.3 °F /  7.4 °C 30.07 in /  1018.2 hPa NE 3.6 mph /  5.8 km/h 6.9 mph /  11.1 km/h 64 % 0.00 in /  0 mm
09:21 57.5 °F /  14.2 °C 45.8 °F /  7.7 °C 30.07 in /  1018.2 hPa North 4.6 mph /  7.4 km/h 9.0 mph /  14.5 km/h 65 % 0.00 in /  0 mm
09:26 57.7 °F /  14.3 °C 45.2 °F /  7.3 °C 30.07 in /  1018.2 hPa NW 2.7 mph /  4.3 km/h 6.9 mph /  11.1 km/h 63 % 0.00 in /  0 mm
09:31 58.0 °F /  14.4 °C 45.9 °F /  7.7 °C 30.07 in /  1018.2 hPa NNW 3.5 mph /  5.6 km/h 8.1 mph /  13 km/h 64 % 0.00 in /  0 mm
09:36 58.2 °F /  14.6 °C 46.1 °F /  7.8 °C 30.07 in /  1018.2 hPa NNE 1.6 mph /  2.6 km/h 3.5 mph /  5.6 km/h 64 % 0.00 in /  0 mm
09:41 58.5 °F /  14.7 °C 46.4 °F /  8 °C 30.07 in /  1018.2 hPa NNE 1.7 mph /  2.7 km/h 5.8 mph /  9.3 km/h 64 % 0.00 in /  0 mm
09:46 59.0 °F /  15 °C 47.2 °F /  8.4 °C 30.07 in /  1018.2 hPa West 1.7 mph /  2.7 km/h 3.5 mph /  5.6 km/h 65 % 0.00 in /  0 mm
09:51 59.8 °F /  15.4 °C 46.3 °F /  7.9 °C 30.07 in /  1018.2 hPa North 3.9 mph /  6.3 km/h 6.0 mph /  9.7 km/h 61 % 0.00 in /  0 mm
09:56 60.7 °F /  15.9 °C 46.7 °F /  8.2 °C 30.07 in /  1018.2 hPa NNE 3.0 mph /  4.8 km/h 8.0 mph /  12.9 km/h 60 % 0.00 in /  0 mm
10:01 61.4 °F /  16.3 °C 46.9 °F /  8.3 °C 30.07 in /  1018.2 hPa WSW 1.8 mph /  2.9 km/h 4.0 mph /  6.4 km/h 59 % 0.00 in /  0 mm
10:07 61.8 °F /  16.6 °C 46.9 °F /  8.3 °C 30.07 in /  1018.2 hPa North 3.3 mph /  5.3 km/h 5.8 mph /  9.3 km/h 58 % 0.00 in /  0 mm
10:11 62.0 °F /  16.7 °C 46.6 °F /  8.1 °C 30.07 in /  1018.2 hPa NNW 5.4 mph /  8.7 km/h 8.1 mph /  13 km/h 57 % 0.00 in /  0 mm
10:17 62.0 °F /  16.7 °C 46.1 °F /  7.8 °C 30.07 in /  1018.2 hPa North 2.5 mph /  4 km/h 6.9 mph /  11.1 km/h 56 % 0.00 in /  0 mm
10:22 61.9 °F /  16.6 °C 46.0 °F /  7.8 °C 30.07 in /  1018.2 hPa NW 4.0 mph /  6.4 km/h 11.5 mph /  18.5 km/h 56 % 0.00 in /  0 mm
10:27 61.8 °F /  16.6 °C 46.4 °F /  8 °C 30.07 in /  1018.2 hPa NNE 3.9 mph /  6.3 km/h 5.8 mph /  9.3 km/h 57 % 0.00 in /  0 mm
10:32 61.7 °F /  16.5 °C 46.3 °F /  7.9 °C 30.07 in /  1018.2 hPa NW 2.3 mph /  3.7 km/h 3.5 mph /  5.6 km/h 57 % 0.00 in /  0 mm
10:37 61.7 °F /  16.5 °C 45.8 °F /  7.7 °C 30.07 in /  1018.2 hPa NNW 1.8 mph /  2.9 km/h 6.9 mph /  11.1 km/h 56 % 0.00 in /  0 mm
10:42 61.8 °F /  16.6 °C 45.5 °F /  7.5 °C 30.07 in /  1018.2 hPa WNW 2.3 mph /  3.7 km/h 10.4 mph /  16.7 km/h 55 % 0.00 in /  0 mm
10:47 61.9 °F /  16.6 °C 46.5 °F /  8.1 °C 30.07 in /  1018.2 hPa NW 2.5 mph /  4 km/h 4.6 mph /  7.4 km/h 57 % 0.00 in /  0 mm
10:52 62.0 °F /  16.7 °C 46.1 °F /  7.8 °C 30.07 in /  1018.2 hPa West 3.6 mph /  5.8 km/h 8.1 mph /  13 km/h 56 % 0.00 in /  0 mm
10:57 62.4 °F /  16.9 °C 45.0 °F /  7.2 °C 30.07 in /  1018.2 hPa North 3.6 mph /  5.8 km/h 5.8 mph /  9.3 km/h 53 % 0.00 in /  0 mm
11:02 63.2 °F /  17.3 °C 46.3 °F /  7.9 °C 30.07 in /  1018.2 hPa NNW 2.7 mph /  4.3 km/h 5.8 mph /  9.3 km/h 54 % 0.00 in /  0 mm
11:07 64.1 °F /  17.8 °C 45.6 °F /  7.6 °C 30.08 in /  1018.5 hPa NW 2.0 mph /  3.2 km/h 4.6 mph /  7.4 km/h 51 % 0.00 in /  0 mm
11:12 65.0 °F /  18.3 °C 46.4 °F /  8 °C 30.07 in /  1018.2 hPa North 5.5 mph /  8.9 km/h 8.1 mph /  13 km/h 51 % 0.00 in /  0 mm
11:17 65.9 °F /  18.8 °C 47.8 °F /  8.8 °C 30.07 in /  1018.2 hPa NW 2.2 mph /  3.5 km/h 3.5 mph /  5.6 km/h 52 % 0.00 in /  0 mm
11:22 66.9 °F /  19.4 °C 46.0 °F /  7.8 °C 30.08 in /  1018.5 hPa WNW 4.8 mph /  7.7 km/h 6.9 mph /  11.1 km/h 47 % 0.00 in /  0 mm
11:27 67.7 °F /  19.8 °C 46.2 °F /  7.9 °C 30.08 in /  1018.5 hPa North 4.6 mph /  7.4 km/h 5.8 mph /  9.3 km/h 46 % 0.00 in /  0 mm
11:32 68.3 °F /  20.2 °C 46.7 °F /  8.2 °C 30.07 in /  1018.2 hPa North 1.9 mph /  3.1 km/h 4.6 mph /  7.4 km/h 46 % 0.00 in /  0 mm
11:37 68.8 °F /  20.4 °C 47.2 °F /  8.4 °C 30.07 in /  1018.2 hPa NW 4.4 mph /  7.1 km/h 7.0 mph /  11.3 km/h 46 % 0.00 in /  0 mm
11:42 69.5 °F /  20.8 °C 50.0 °F /  10 °C 30.07 in /  1018.2 hPa NE 1.4 mph /  2.3 km/h 3.5 mph /  5.6 km/h 50 % 0.00 in /  0 mm
11:47 70.1 °F /  21.2 °C 45.9 °F /  7.7 °C 30.07 in /  1018.2 hPa WNW 3.2 mph /  5.1 km/h 8.1 mph /  13 km/h 42 % 0.00 in /  0 mm
11:52 70.6 °F /  21.4 °C 47.6 °F /  8.7 °C 30.07 in /  1018.2 hPa North 0.7 mph /  1.1 km/h 4.6 mph /  7.4 km/h 44 % 0.00 in /  0 mm
11:57 71.3 °F /  21.8 °C 50.6 °F /  10.3 °C 30.07 in /  1018.2 hPa NW 0.5 mph /  0.8 km/h 3.5 mph /  5.6 km/h 48 % 0.00 in /  0 mm
12:02 71.8 °F /  22.1 °C 46.8 °F /  8.2 °C 30.07 in /  1018.2 hPa WNW 0.6 mph /  1 km/h 5.8 mph /  9.3 km/h 41 % 0.00 in /  0 mm
12:07 72.1 °F /  22.3 °C 45.8 °F /  7.7 °C 30.07 in /  1018.2 hPa NW 2.3 mph /  3.7 km/h 8.1 mph /  13 km/h 39 % 0.00 in /  0 mm
12:12 72.2 °F /  22.3 °C 46.5 °F /  8.1 °C 30.07 in /  1018.2 hPa WNW 2.1 mph /  3.4 km/h 4.6 mph /  7.4 km/h 40 % 0.00 in /  0 mm
12:18 72.5 °F /  22.5 °C 47.5 °F /  8.6 °C 30.07 in /  1018.2 hPa West 2.9 mph /  4.7 km/h 5.8 mph /  9.3 km/h 41 % 0.00 in /  0 mm
12:23 72.7 °F /  22.6 °C 50.1 °F /  10.1 °C 30.07 in /  1018.2 hPa NE 2.8 mph /  4.5 km/h 6.9 mph /  11.1 km/h 45 % 0.00 in /  0 mm
12:28 73.3 °F /  22.9 °C 48.2 °F /  9 °C 30.07 in /  1018.2 hPa North 3.3 mph /  5.3 km/h 8.0 mph /  12.9 km/h 41 % 0.00 in /  0 mm
12:33 73.4 °F /  23 °C 48.3 °F /  9.1 °C 30.06 in /  1017.8 hPa NW 1.5 mph /  2.4 km/h 6.9 mph /  11.1 km/h 41 % 0.00 in /  0 mm
12:38 73.6 °F /  23.1 °C 48.4 °F /  9.1 °C 30.06 in /  1017.8 hPa NW 3.8 mph /  6.1 km/h 9.2 mph /  14.8 km/h 41 % 0.00 in /  0 mm
12:43 73.8 °F /  23.2 °C 48.0 °F /  8.9 °C 30.06 in /  1017.8 hPa NNE 2.8 mph /  4.5 km/h 5.8 mph /  9.3 km/h 40 % 0.00 in /  0 mm
12:44 73.8 °F /  23.2 °C 48.6 °F /  9.2 °C 30.06 in /  1017.8 hPa NNW 1.1 mph /  1.8 km/h 5.8 mph /  9.3 km/h 41 % 0.00 in /  0 mm
12:49 73.9 °F /  23.3 °C 50.0 °F /  10 °C 30.06 in /  1017.8 hPa NNE 1.0 mph /  1.6 km/h 4.6 mph /  7.4 km/h 43 % 0.00 in /  0 mm
12:54 74.0 °F /  23.3 °C 50.1 °F /  10.1 °C 30.06 in /  1017.8 hPa North 0.3 mph /  0.5 km/h 5.8 mph /  9.3 km/h 43 % 0.00 in /  0 mm
12:59 74.0 °F /  23.3 °C 46.1 °F /  7.8 °C 30.06 in /  1017.8 hPa NNE 5.1 mph /  8.2 km/h 8.1 mph /  13 km/h 37 % 0.00 in /  0 mm
13:04 74.0 °F /  23.3 °C 50.1 °F /  10.1 °C 30.06 in /  1017.8 hPa NNW 4.8 mph /  7.7 km/h 9.2 mph /  14.8 km/h 43 % 0.00 in /  0 mm
13:09 74.0 °F /  23.3 °C 49.4 °F /  9.7 °C 30.06 in /  1017.8 hPa NW 1.7 mph /  2.7 km/h 4.6 mph /  7.4 km/h 42 % 0.00 in /  0 mm
13:14 73.9 °F /  23.3 °C 46.7 °F /  8.2 °C 30.06 in /  1017.8 hPa NW 1.1 mph /  1.8 km/h 3.5 mph /  5.6 km/h 38 % 0.00 in /  0 mm
13:19 74.0 °F /  23.3 °C 49.4 °F /  9.7 °C 30.06 in /  1017.8 hPa NNW 0.6 mph /  1 km/h 5.0 mph /  8 km/h 42 % 0.00 in /  0 mm
13:24 74.2 °F /  23.4 °C 46.2 °F /  7.9 °C 30.06 in /  1017.8 hPa NNW 1.0 mph /  1.6 km/h 3.5 mph /  5.6 km/h 37 % 0.00 in /  0 mm
13:29 74.3 °F /  23.5 °C 44.9 °F /  7.2 °C 30.05 in /  1017.5 hPa WNW 5.4 mph /  8.7 km/h 10.0 mph /  16.1 km/h 35 % 0.00 in /  0 mm
13:34 74.0 °F /  23.3 °C 45.3 °F /  7.4 °C 30.05 in /  1017.5 hPa WNW 2.1 mph /  3.4 km/h 5.0 mph /  8 km/h 36 % 0.00 in /  0 mm
13:39 73.9 °F /  23.3 °C 47.4 °F /  8.6 °C 30.05 in /  1017.5 hPa SW 3.6 mph /  5.8 km/h 8.1 mph /  13 km/h 39 % 0.00 in /  0 mm
13:44 74.0 °F /  23.3 °C 44.6 °F /  7 °C 30.05 in /  1017.5 hPa NNW 3.4 mph /  5.5 km/h 8.1 mph /  13 km/h 35 % 0.00 in /  0 mm
13:49 74.1 °F /  23.4 °C 46.9 °F /  8.3 °C 30.05 in /  1017.5 hPa West 1.7 mph /  2.7 km/h 4.6 mph /  7.4 km/h 38 % 0.00 in /  0 mm
13:54 74.3 °F /  23.5 °C 47.0 °F /  8.3 °C 30.05 in /  1017.5 hPa WNW 2.3 mph /  3.7 km/h 4.6 mph /  7.4 km/h 38 % 0.00 in /  0 mm
13:59 74.5 °F /  23.6 °C 45.0 °F /  7.2 °C 30.05 in /  1017.5 hPa NNE 1.5 mph /  2.4 km/h 4.6 mph /  7.4 km/h 35 % 0.00 in /  0 mm
14:04 74.4 °F /  23.6 °C 47.8 °F /  8.8 °C 30.04 in /  1017.2 hPa NNE 0.2 mph /  0.3 km/h 1.2 mph /  1.9 km/h 39 % 0.00 in /  0 mm
14:09 74.6 °F /  23.7 °C 46.6 °F /  8.1 °C 30.04 in /  1017.2 hPa WNW 2.2 mph /  3.5 km/h 4.0 mph /  6.4 km/h 37 % 0.00 in /  0 mm
14:14 74.7 °F /  23.7 °C 46.0 °F /  7.8 °C 30.04 in /  1017.2 hPa NW 2.3 mph /  3.7 km/h 5.0 mph /  8 km/h 36 % 0.00 in /  0 mm
14:19 74.7 °F /  23.7 °C 45.2 °F /  7.3 °C 30.04 in /  1017.2 hPa NW 2.2 mph /  3.5 km/h 3.5 mph /  5.6 km/h 35 % 0.00 in /  0 mm
14:24 74.7 °F /  23.7 °C 46.0 °F /  7.8 °C 30.04 in /  1017.2 hPa North 0.6 mph /  1 km/h 5.8 mph /  9.3 km/h 36 % 0.00 in /  0 mm
14:29 74.6 °F /  23.7 °C 47.3 °F /  8.5 °C 30.04 in /  1017.2 hPa NW 1.9 mph /  3.1 km/h 3.5 mph /  5.6 km/h 38 % 0.00 in /  0 mm
14:34 74.7 °F /  23.7 °C 47.4 °F /  8.6 °C 30.04 in /  1017.2 hPa NW 2.4 mph /  3.9 km/h 4.0 mph /  6.4 km/h 38 % 0.00 in /  0 mm
14:39 74.7 °F /  23.7 °C 44.5 °F /  6.9 °C 30.04 in /  1017.2 hPa NNW 3.3 mph /  5.3 km/h 6.9 mph /  11.1 km/h 34 % 0.00 in /  0 mm
14:44 74.7 °F /  23.7 °C 45.2 °F /  7.3 °C 30.04 in /  1017.2 hPa NNE 1.2 mph /  1.9 km/h 3.5 mph /  5.6 km/h 35 % 0.00 in /  0 mm
14:49 74.7 °F /  23.7 °C 47.4 °F /  8.6 °C 30.03 in /  1016.8 hPa NNE 2.4 mph /  3.9 km/h 5.0 mph /  8 km/h 38 % 0.00 in /  0 mm
14:54 74.5 °F /  23.6 °C 45.0 °F /  7.2 °C 30.04 in /  1017.2 hPa NW 2.9 mph /  4.7 km/h 6.0 mph /  9.7 km/h 35 % 0.00 in /  0 mm
15:00 74.5 °F /  23.6 °C 44.3 °F /  6.8 °C 30.04 in /  1017.2 hPa WNW 2.4 mph /  3.9 km/h 6.9 mph /  11.1 km/h 34 % 0.00 in /  0 mm
15:05 74.4 °F /  23.6 °C 45.7 °F /  7.6 °C 30.04 in /  1017.2 hPa NW 2.4 mph /  3.9 km/h 4.0 mph /  6.4 km/h 36 % 0.00 in /  0 mm
15:10 74.3 °F /  23.5 °C 44.9 °F /  7.2 °C 30.04 in /  1017.2 hPa West 3.6 mph /  5.8 km/h 8.0 mph /  12.9 km/h 35 % 0.00 in /  0 mm
15:15 74.2 °F /  23.4 °C 44.8 °F /  7.1 °C 30.04 in /  1017.2 hPa West 4.7 mph /  7.6 km/h 8.1 mph /  13 km/h 35 % 0.00 in /  0 mm
15:20 74.2 °F /  23.4 °C 44.8 °F /  7.1 °C 30.04 in /  1017.2 hPa NNW 1.6 mph /  2.6 km/h 5.0 mph /  8 km/h 35 % 0.00 in /  0 mm
15:25 74.3 °F /  23.5 °C 45.6 °F /  7.6 °C 30.03 in /  1016.8 hPa WNW 0.7 mph /  1.1 km/h 3.5 mph /  5.6 km/h 36 % 0.00 in /  0 mm
15:30 74.4 °F /  23.6 °C 46.4 °F /  8 °C 30.03 in /  1016.8 hPa NNW 2.2 mph /  3.5 km/h 6.0 mph /  9.7 km/h 37 % 0.00 in /  0 mm
15:35 74.5 °F /  23.6 °C 44.3 °F /  6.8 °C 30.03 in /  1016.8 hPa WNW 2.0 mph /  3.2 km/h 3.5 mph /  5.6 km/h 34 % 0.00 in /  0 mm
15:40 74.6 °F /  23.7 °C 46.6 °F /  8.1 °C 30.03 in /  1016.8 hPa NNE 1.2 mph /  1.9 km/h 3.5 mph /  5.6 km/h 37 % 0.00 in /  0 mm
15:45 74.4 °F /  23.6 °C 45.0 °F /  7.2 °C 30.03 in /  1016.8 hPa WNW 0.7 mph /  1.1 km/h 3.0 mph /  4.8 km/h 35 % 0.00 in /  0 mm
15:50 74.5 °F /  23.6 °C 44.3 °F /  6.8 °C 30.03 in /  1016.8 hPa WNW 0.8 mph /  1.3 km/h 2.3 mph /  3.7 km/h 34 % 0.00 in /  0 mm
15:55 74.4 °F /  23.6 °C 45.7 °F /  7.6 °C 30.03 in /  1016.8 hPa North 2.0 mph /  3.2 km/h 3.5 mph /  5.6 km/h 36 % 0.00 in /  0 mm
16:00 74.3 °F /  23.5 °C 47.0 °F /  8.3 °C 30.03 in /  1016.8 hPa NNW 0.2 mph /  0.3 km/h 1.2 mph /  1.9 km/h 38 % 0.00 in /  0 mm
16:05 74.3 °F /  23.5 °C 45.6 °F /  7.6 °C 30.03 in /  1016.8 hPa NW 3.5 mph /  5.6 km/h 5.8 mph /  9.3 km/h 36 % 0.00 in /  0 mm
16:10 74.1 °F /  23.4 °C 46.2 °F /  7.9 °C 30.03 in /  1016.8 hPa West 2.3 mph /  3.7 km/h 6.9 mph /  11.1 km/h 37 % 0.00 in /  0 mm
16:15 74.1 °F /  23.4 °C 45.4 °F /  7.4 °C 30.03 in /  1016.8 hPa NW 3.5 mph /  5.6 km/h 6.9 mph /  11.1 km/h 36 % 0.00 in /  0 mm
16:20 73.9 °F /  23.3 °C 46.0 °F /  7.8 °C 30.02 in /  1016.5 hPa WNW 1.8 mph /  2.9 km/h 4.0 mph /  6.4 km/h 37 % 0.00 in /  0 mm
16:25 73.8 °F /  23.2 °C 48.0 °F /  8.9 °C 30.03 in /  1016.8 hPa WNW 2.0 mph /  3.2 km/h 3.5 mph /  5.6 km/h 40 % 0.00 in /  0 mm
16:30 73.6 °F /  23.1 °C 47.1 °F /  8.4 °C 30.03 in /  1016.8 hPa WNW 3.1 mph /  5 km/h 4.6 mph /  7.4 km/h 39 % 0.00 in /  0 mm
16:35 73.6 °F /  23.1 °C 48.4 °F /  9.1 °C 30.03 in /  1016.8 hPa West 1.8 mph /  2.9 km/h 3.0 mph /  4.8 km/h 41 % 0.00 in /  0 mm
16:40 73.3 °F /  22.9 °C 46.8 °F /  8.2 °C 30.03 in /  1016.8 hPa WSW 1.5 mph /  2.4 km/h 6.0 mph /  9.7 km/h 39 % 0.00 in /  0 mm
16:45 73.0 °F /  22.8 °C 45.2 °F /  7.3 °C 30.03 in /  1016.8 hPa West 4.3 mph /  6.9 km/h 5.8 mph /  9.3 km/h 37 % 0.00 in /  0 mm
16:50 72.8 °F /  22.7 °C 46.4 °F /  8 °C 30.03 in /  1016.8 hPa West 3.0 mph /  4.8 km/h 4.6 mph /  7.4 km/h 39 % 0.00 in /  0 mm
16:55 72.6 °F /  22.6 °C 45.5 °F /  7.5 °C 30.03 in /  1016.8 hPa West 3.8 mph /  6.1 km/h 5.8 mph /  9.3 km/h 38 % 0.00 in /  0 mm
17:00 72.6 °F /  22.6 °C 46.2 °F /  7.9 °C 30.03 in /  1016.8 hPa NNE 1.2 mph /  1.9 km/h 6.9 mph /  11.1 km/h 39 % 0.00 in /  0 mm
17:05 72.4 °F /  22.4 °C 46.0 °F /  7.8 °C 30.03 in /  1016.8 hPa NW 1.2 mph /  1.9 km/h 3.0 mph /  4.8 km/h 39 % 0.00 in /  0 mm
17:10 72.2 °F /  22.3 °C 46.5 °F /  8.1 °C 30.02 in /  1016.5 hPa NW 1.7 mph /  2.7 km/h 3.5 mph /  5.6 km/h 40 % 0.00 in /  0 mm
17:15 72.0 °F /  22.2 °C 46.3 °F /  7.9 °C 30.03 in /  1016.8 hPa WNW 2.7 mph /  4.3 km/h 5.8 mph /  9.3 km/h 40 % 0.00 in /  0 mm
17:21 71.9 °F /  22.2 °C 46.3 °F /  7.9 °C 30.02 in /  1016.5 hPa WNW 1.8 mph /  2.9 km/h 3.0 mph /  4.8 km/h 40 % 0.00 in /  0 mm
17:26 71.7 °F /  22.1 °C 46.7 °F /  8.2 °C 30.02 in /  1016.5 hPa Calm   5.0 mph /  8 km/h 41 % 0.00 in /  0 mm
17:31 71.6 °F /  22 °C 46.6 °F /  8.1 °C 30.02 in /  1016.5 hPa WNW 2.0 mph /  3.2 km/h 6.0 mph /  9.7 km/h 41 % 0.00 in /  0 mm
17:36 71.4 °F /  21.9 °C 45.8 °F /  7.7 °C 30.03 in /  1016.8 hPa WNW 2.0 mph /  3.2 km/h 6.0 mph /  9.7 km/h 40 % 0.00 in /  0 mm
17:41 71.2 °F /  21.8 °C 45.0 °F /  7.2 °C 30.02 in /  1016.5 hPa WNW 3.0 mph /  4.8 km/h 4.6 mph /  7.4 km/h 39 % 0.00 in /  0 mm
17:46 71.1 °F /  21.7 °C 46.2 °F /  7.9 °C 30.03 in /  1016.8 hPa West 1.7 mph /  2.7 km/h 3.5 mph /  5.6 km/h 41 % 0.00 in /  0 mm
17:51 70.9 °F /  21.6 °C 45.4 °F /  7.4 °C 30.03 in /  1016.8 hPa WNW 1.4 mph /  2.3 km/h 3.5 mph /  5.6 km/h 40 % 0.00 in /  0 mm
17:56 70.7 °F /  21.5 °C 45.2 °F /  7.3 °C 30.03 in /  1016.8 hPa WNW 1.9 mph /  3.1 km/h 6.9 mph /  11.1 km/h 40 % 0.00 in /  0 mm
18:01 70.4 °F /  21.3 °C 45.6 °F /  7.6 °C 30.03 in /  1016.8 hPa WNW 1.3 mph /  2.1 km/h 3.5 mph /  5.6 km/h 41 % 0.00 in /  0 mm
18:06 70.2 °F /  21.2 °C 45.4 °F /  7.4 °C 30.03 in /  1016.8 hPa NW 4.3 mph /  6.9 km/h 6.9 mph /  11.1 km/h 41 % 0.00 in /  0 mm
18:11 70.0 °F /  21.1 °C 45.8 °F /  7.7 °C 30.03 in /  1016.8 hPa WNW 0.5 mph /  0.8 km/h 3.0 mph /  4.8 km/h 42 % 0.00 in /  0 mm
18:16 69.8 °F /  21 °C 45.7 °F /  7.6 °C 30.02 in /  1016.5 hPa WNW 2.4 mph /  3.9 km/h 5.8 mph /  9.3 km/h 42 % 0.00 in /  0 mm
18:21 69.6 °F /  20.9 °C 45.5 °F /  7.5 °C 30.03 in /  1016.8 hPa WNW 1.4 mph /  2.3 km/h 3.5 mph /  5.6 km/h 42 % 0.00 in /  0 mm
18:26 69.4 °F /  20.8 °C 46.5 °F /  8.1 °C 30.03 in /  1016.8 hPa West 0.1 mph /  0.2 km/h 1.2 mph /  1.9 km/h 44 % 0.00 in /  0 mm
18:31 69.2 °F /  20.7 °C 45.7 °F /  7.6 °C 30.03 in /  1016.8 hPa NNW 0.6 mph /  1 km/h 3.5 mph /  5.6 km/h 43 % 0.00 in /  0 mm
18:36 68.9 °F /  20.5 °C 45.5 °F /  7.5 °C 30.03 in /  1016.8 hPa WNW 0.4 mph /  0.6 km/h 3.0 mph /  4.8 km/h 43 % 0.00 in /  0 mm
18:41 68.8 °F /  20.4 °C 46.6 °F /  8.1 °C 30.03 in /  1016.8 hPa ENE 2.7 mph /  4.3 km/h 3.5 mph /  5.6 km/h 45 % 0.00 in /  0 mm
18:46 68.5 °F /  20.3 °C 45.7 °F /  7.6 °C 30.04 in /  1017.2 hPa NNW 0.3 mph /  0.5 km/h 4.0 mph /  6.4 km/h 44 % 0.00 in /  0 mm
18:51 68.3 °F /  20.2 °C 44.9 °F /  7.2 °C 30.04 in /  1017.2 hPa WSW 1.6 mph /  2.6 km/h 5.8 mph /  9.3 km/h 43 % 0.00 in /  0 mm
19:01 67.9 °F /  19.9 °C 45.2 °F /  7.3 °C 30.04 in /  1017.2 hPa NNW 0.3 mph /  0.5 km/h 2.3 mph /  3.7 km/h 44 % 0.00 in /  0 mm
19:07 67.7 °F /  19.8 °C 45.0 °F /  7.2 °C 30.04 in /  1017.2 hPa WNW 0.5 mph /  0.8 km/h 3.5 mph /  5.6 km/h 44 % 0.00 in /  0 mm
19:12 67.6 °F /  19.8 °C 44.9 °F /  7.2 °C 30.04 in /  1017.2 hPa WSW 2.3 mph /  3.7 km/h 3.5 mph /  5.6 km/h 44 % 0.00 in /  0 mm
19:17 67.5 °F /  19.7 °C 45.4 °F /  7.4 °C 30.04 in /  1017.2 hPa NW 2.0 mph /  3.2 km/h 3.5 mph /  5.6 km/h 45 % 0.00 in /  0 mm
19:22 67.4 °F /  19.7 °C 45.3 °F /  7.4 °C 30.05 in /  1017.5 hPa NW 0.3 mph /  0.5 km/h 5.8 mph /  9.3 km/h 45 % 0.00 in /  0 mm
19:27 67.2 °F /  19.6 °C 45.1 °F /  7.3 °C 30.05 in /  1017.5 hPa NNW 0.1 mph /  0.2 km/h 1.0 mph /  1.6 km/h 45 % 0.00 in /  0 mm
19:32 67.1 °F /  19.5 °C 44.4 °F /  6.9 °C 30.05 in /  1017.5 hPa NNE 0.9 mph /  1.4 km/h 3.5 mph /  5.6 km/h 44 % 0.00 in /  0 mm
19:37 67.0 °F /  19.4 °C 44.9 °F /  7.2 °C 30.06 in /  1017.8 hPa WNW 0.1 mph /  0.2 km/h 1.0 mph /  1.6 km/h 45 % 0.00 in /  0 mm
19:42 66.9 °F /  19.4 °C 44.9 °F /  7.2 °C 30.06 in /  1017.8 hPa Calm   1.2 mph /  1.9 km/h 45 % 0.00 in /  0 mm
19:47 66.8 °F /  19.3 °C 44.8 °F /  7.1 °C 30.06 in /  1017.8 hPa WNW 1.6 mph /  2.6 km/h 3.5 mph /  5.6 km/h 45 % 0.00 in /  0 mm
19:52 66.7 °F /  19.3 °C 44.7 °F /  7.1 °C 30.06 in /  1017.8 hPa WNW 0.3 mph /  0.5 km/h 1.2 mph /  1.9 km/h 45 % 0.00 in /  0 mm
19:57 66.6 °F /  19.2 °C 45.2 °F /  7.3 °C 30.06 in /  1017.8 hPa WNW 0.2 mph /  0.3 km/h 1.2 mph /  1.9 km/h 46 % 0.00 in /  0 mm
20:02 66.5 °F /  19.2 °C 44.5 °F /  6.9 °C 30.07 in /  1018.2 hPa WNW 2.4 mph /  3.9 km/h 4.6 mph /  7.4 km/h 45 % 0.00 in /  0 mm
20:07 66.4 °F /  19.1 °C 44.4 °F /  6.9 °C 30.07 in /  1018.2 hPa West 2.9 mph /  4.7 km/h 6.9 mph /  11.1 km/h 45 % 0.00 in /  0 mm
20:12 66.3 °F /  19.1 °C 44.9 °F /  7.2 °C 30.07 in /  1018.2 hPa WNW 0.2 mph /  0.3 km/h 2.3 mph /  3.7 km/h 46 % 0.00 in /  0 mm
20:17 66.3 °F /  19.1 °C 45.5 °F /  7.5 °C 30.08 in /  1018.5 hPa Calm   1.2 mph /  1.9 km/h 47 % 0.00 in /  0 mm
20:23 66.3 °F /  19.1 °C 46.0 °F /  7.8 °C 30.08 in /  1018.5 hPa West 0.6 mph /  1 km/h 4.6 mph /  7.4 km/h 48 % 0.00 in /  0 mm
20:27 66.3 °F /  19.1 °C 46.0 °F /  7.8 °C 30.08 in /  1018.5 hPa West 1.4 mph /  2.3 km/h 3.0 mph /  4.8 km/h 48 % 0.00 in /  0 mm
20:32 66.3 °F /  19.1 °C 46.0 °F /  7.8 °C 30.09 in /  1018.8 hPa WNW 1.8 mph /  2.9 km/h 4.6 mph /  7.4 km/h 48 % 0.00 in /  0 mm
20:37 66.2 °F /  19 °C 45.9 °F /  7.7 °C 30.08 in /  1018.5 hPa NW 1.2 mph /  1.9 km/h 3.5 mph /  5.6 km/h 48 % 0.00 in /  0 mm
20:42 66.1 °F /  18.9 °C 45.8 °F /  7.7 °C 30.08 in /  1018.5 hPa WNW 0.3 mph /  0.5 km/h 3.5 mph /  5.6 km/h 48 % 0.00 in /  0 mm
20:47 66.1 °F /  18.9 °C 45.8 °F /  7.7 °C 30.09 in /  1018.8 hPa North 1.9 mph /  3.1 km/h 5.0 mph /  8 km/h 48 % 0.00 in /  0 mm
20:53 66.0 °F /  18.9 °C 46.3 °F /  7.9 °C 30.09 in /  1018.8 hPa NE 1.5 mph /  2.4 km/h 5.8 mph /  9.3 km/h 49 % 0.00 in /  0 mm
20:58 66.1 °F /  18.9 °C 46.4 °F /  8 °C 30.09 in /  1018.8 hPa WNW 2.9 mph /  4.7 km/h 4.6 mph /  7.4 km/h 49 % 0.00 in /  0 mm
21:03 66.1 °F /  18.9 °C 47.4 °F /  8.6 °C 30.09 in /  1018.8 hPa NNE 2.1 mph /  3.4 km/h 4.6 mph /  7.4 km/h 51 % 0.00 in /  0 mm
21:08 66.1 °F /  18.9 °C 48.5 °F /  9.2 °C 30.10 in /  1019.2 hPa NNE 2.7 mph /  4.3 km/h 4.0 mph /  6.4 km/h 53 % 0.00 in /  0 mm
21:13 66.1 °F /  18.9 °C 49.0 °F /  9.4 °C 30.10 in /  1019.2 hPa ENE 1.3 mph /  2.1 km/h 6.0 mph /  9.7 km/h 54 % 0.00 in /  0 mm
21:18 66.1 °F /  18.9 °C 49.0 °F /  9.4 °C 30.10 in /  1019.2 hPa ENE 0.6 mph /  1 km/h 2.3 mph /  3.7 km/h 54 % 0.00 in /  0 mm
21:23 65.9 °F /  18.8 °C 48.3 °F /  9.1 °C 30.10 in /  1019.2 hPa NNE 3.8 mph /  6.1 km/h 6.9 mph /  11.1 km/h 53 % 0.00 in /  0 mm
21:28 65.8 °F /  18.8 °C 47.7 °F /  8.7 °C 30.09 in /  1018.8 hPa NNE 3.1 mph /  5 km/h 4.6 mph /  7.4 km/h 52 % 0.00 in /  0 mm
21:33 65.6 °F /  18.7 °C 48.0 °F /  8.9 °C 30.09 in /  1018.8 hPa North 4.3 mph /  6.9 km/h 6.9 mph /  11.1 km/h 53 % 0.00 in /  0 mm
21:38 65.5 °F /  18.6 °C 47.9 °F /  8.8 °C 30.09 in /  1018.8 hPa ENE 2.6 mph /  4.2 km/h 5.8 mph /  9.3 km/h 53 % 0.00 in /  0 mm
21:43 65.4 °F /  18.6 °C 47.8 °F /  8.8 °C 30.10 in /  1019.2 hPa NNE 2.4 mph /  3.9 km/h 5.8 mph /  9.3 km/h 53 % 0.00 in /  0 mm
21:48 65.4 °F /  18.6 °C 47.8 °F /  8.8 °C 30.10 in /  1019.2 hPa NNE 3.9 mph /  6.3 km/h 5.8 mph /  9.3 km/h 53 % 0.00 in /  0 mm
21:53 65.3 °F /  18.5 °C 47.7 °F /  8.7 °C 30.11 in /  1019.5 hPa NNW 1.5 mph /  2.4 km/h 4.6 mph /  7.4 km/h 53 % 0.00 in /  0 mm
21:58 65.2 °F /  18.4 °C 47.1 °F /  8.4 °C 30.11 in /  1019.5 hPa ENE 1.7 mph /  2.7 km/h 7.0 mph /  11.3 km/h 52 % 0.00 in /  0 mm
22:03 65.2 °F /  18.4 °C 47.6 °F /  8.7 °C 30.12 in /  1019.9 hPa NNE 1.8 mph /  2.9 km/h 5.0 mph /  8 km/h 53 % 0.00 in /  0 mm
22:08 65.0 °F /  18.3 °C 46.9 °F /  8.3 °C 30.12 in /  1019.9 hPa NNE 3.2 mph /  5.1 km/h 4.6 mph /  7.4 km/h 52 % 0.00 in /  0 mm
22:13 64.9 °F /  18.3 °C 46.3 °F /  7.9 °C 30.12 in /  1019.9 hPa NNE 2.8 mph /  4.5 km/h 3.5 mph /  5.6 km/h 51 % 0.00 in /  0 mm
22:18 64.8 °F /  18.2 °C 47.3 °F /  8.5 °C 30.12 in /  1019.9 hPa ENE 4.5 mph /  7.2 km/h 6.9 mph /  11.1 km/h 53 % 0.00 in /  0 mm
22:23 64.7 °F /  18.2 °C 46.7 °F /  8.2 °C 30.12 in /  1019.9 hPa NE 5.6 mph /  9 km/h 9.2 mph /  14.8 km/h 52 % 0.00 in /  0 mm
22:24 64.7 °F /  18.2 °C 47.2 °F /  8.4 °C 30.12 in /  1019.9 hPa NNE 3.9 mph /  6.3 km/h 6.0 mph /  9.7 km/h 53 % 0.00 in /  0 mm
22:29 64.7 °F /  18.2 °C 48.2 °F /  9 °C 30.12 in /  1019.9 hPa NE 3.5 mph /  5.6 km/h 8.1 mph /  13 km/h 55 % 0.00 in /  0 mm
22:34 64.6 °F /  18.1 °C 48.1 °F /  8.9 °C 30.13 in /  1020.2 hPa NNE 0.9 mph /  1.4 km/h 6.9 mph /  11.1 km/h 55 % 0.00 in /  0 mm
22:39 64.5 °F /  18.1 °C 47.0 °F /  8.3 °C 30.14 in /  1020.5 hPa NE 3.5 mph /  5.6 km/h 7.0 mph /  11.3 km/h 53 % 0.00 in /  0 mm
22:44 64.3 °F /  17.9 °C 45.3 °F /  7.4 °C 30.14 in /  1020.5 hPa NNE 3.4 mph /  5.5 km/h 8.1 mph /  13 km/h 50 % 0.00 in /  0 mm
22:49 64.1 °F /  17.8 °C 44.5 °F /  6.9 °C 30.14 in /  1020.5 hPa NNE 3.2 mph /  5.1 km/h 7.0 mph /  11.3 km/h 49 % 0.00 in /  0 mm
22:54 64.0 °F /  17.8 °C 44.4 °F /  6.9 °C 30.14 in /  1020.5 hPa NNE 4.2 mph /  6.8 km/h 6.0 mph /  9.7 km/h 49 % 0.00 in /  0 mm
22:59 63.7 °F /  17.6 °C 44.7 °F /  7.1 °C 30.14 in /  1020.5 hPa North 2.4 mph /  3.9 km/h 4.6 mph /  7.4 km/h 50 % 0.00 in /  0 mm
23:04 63.6 °F /  17.6 °C 44.1 °F /  6.7 °C 30.13 in /  1020.2 hPa NNE 4.7 mph /  7.6 km/h 8.1 mph /  13 km/h 49 % 0.00 in /  0 mm
23:06 63.6 °F /  17.6 °C 44.1 °F /  6.7 °C 30.13 in /  1020.2 hPa NNE 5.0 mph /  8 km/h 8.0 mph /  12.9 km/h 49 % 0.00 in /  0 mm
23:11 63.4 °F /  17.4 °C 45.5 °F /  7.5 °C 30.13 in /  1020.2 hPa NNE 5.8 mph /  9.3 km/h 11.5 mph /  18.5 km/h 52 % 0.00 in /  0 mm
23:16 63.2 °F /  17.3 °C 44.8 °F /  7.1 °C 30.13 in /  1020.2 hPa NNE 5.7 mph /  9.2 km/h 11.5 mph /  18.5 km/h 51 % 0.00 in /  0 mm
23:21 63.2 °F /  17.3 °C 44.8 °F /  7.1 °C 30.13 in /  1020.2 hPa NNE 7.8 mph /  12.6 km/h 11.5 mph /  18.5 km/h 51 % 0.00 in /  0 mm
23:23 63.2 °F /  17.3 °C 44.8 °F /  7.1 °C 30.13 in /  1020.2 hPa NNE 6.6 mph /  10.6 km/h 10.4 mph /  16.7 km/h 51 % 0.00 in /  0 mm
23:26 63.1 °F /  17.3 °C 44.7 °F /  7.1 °C 30.13 in /  1020.2 hPa NNE 6.0 mph /  9.7 km/h 12.0 mph /  19.3 km/h 51 % 0.00 in /  0 mm
23:31 63.1 °F /  17.3 °C 45.2 °F /  7.3 °C 30.13 in /  1020.2 hPa NNE 5.0 mph /  8 km/h 9.0 mph /  14.5 km/h 52 % 0.00 in /  0 mm
23:34 63.1 °F /  17.3 °C 45.2 °F /  7.3 °C 30.13 in /  1020.2 hPa North 5.9 mph /  9.5 km/h 11.5 mph /  18.5 km/h 52 % 0.00 in /  0 mm
23:37 63.1 °F /  17.3 °C 45.7 °F /  7.6 °C 30.13 in /  1020.2 hPa NNE 8.4 mph /  13.5 km/h 15.0 mph /  24.1 km/h 53 % 0.00 in /  0 mm
23:42 63.0 °F /  17.2 °C 45.6 °F /  7.6 °C 30.13 in /  1020.2 hPa North 7.8 mph /  12.6 km/h 15.0 mph /  24.1 km/h 53 % 0.00 in /  0 mm
23:47 62.9 °F /  17.2 °C 45.5 °F /  7.5 °C 30.13 in /  1020.2 hPa NNE 5.3 mph /  8.5 km/h 8.1 mph /  13 km/h 53 % 0.00 in /  0 mm
23:52 62.9 °F /  17.2 °C 45.0 °F /  7.2 °C 30.13 in /  1020.2 hPa NNE 7.5 mph /  12.1 km/h 12.7 mph /  20.4 km/h 52 % 0.00 in /  0 mm
23:57 62.8 °F /  17.1 °C 45.9 °F /  7.7 °C 30.14 in /  1020.5 hPa North 4.4 mph /  7.1 km/h 6.9 mph /  11.1 km/h 54 % 0.00 in /  0 mm
Crab Meadow Weather
Compliments of Weather Underground - 3 mb

Script developed by  Jim McMurry - jmcmurry@mwt.net Adapted for the template by  Wim van der Kuil - Leuven-Template.eu

Extremes: The heaviest hailstones on record, weighing up to 2.25 pounds were reported to have killed 92 people in the Gopalganj district of Bangladesh on April 14, 1986.